Portada
METAR-TAF:

METAR-TAF

Aeropuertos :

Anderson, Indiana, Estados Unidos

latitud: 40-07N, longitud: 085-37W, altitud: 280 m

Observación

El informe se hizo hace 17 minutos, a las 18:59 UTC
Viento calma
Temperatura 31°C
Humedad 55%
Presión 1025 hPa
Visibilidad: 16.1 km
Cielo despejado

METAR: KAID 191859Z 00000KT 10SM CLR 31/21 A3026

Hora: 15:16 (19:16 UTC)


TAF: falta

Observaciones y pronósticos meteorológicos de más de 4000 aeropuertos (mensajes METAR y TAF).

Los puntos amarillos y rojos representan las estaciones disponibles.

Ponga el ratón en el punto deseado para ver el nombre de la estación.

Haga clic para ver las observaciones y los pronósticos meteorológicos.

Para cambiar el mapa : haga clic en los botones verdes con una cruz de color negro para hacer un zoom, en el botón verde con un guión para alejar o en las flechas verdes para mapas adyacentes.


METAR-TAF: